Malaga, WA (98828)

2:04 AM PDT on August 28, 2014 (GMT -0700)
Pangborn Memorial | Change Station
CLOSE
Current Station
Airport
Location: Wenatchee,
Elevation: 1247 ft
Nearby Weather Stations

Elev 1247 ft 47.40 °N, 120.21 °W | Updated 9 minutes ago

Clear
Clear
75 °F
Feels Like 75 °F
N
13
Wind Variable Wind from WNW

Today
High -- | Low -- °F
--% Chance of Precip.
Yesterday
High -- | Low -- °F
Precip. -- in
6:14 AM 7:48 PM
Waxing Crescent, 7% visible
Pressure 29.89 in
Visibility 10.0 miles
Clouds Clear
Dew Point 52 °F
Humidity 44%
Rainfall 0.00 in
Snow Depth Not available.
UV 0 out of 12
Pollen 4.80 out of 12
Air Quality Not available.
Flu Activity Not available.
METAR KEAT 280855Z AUTO 30011KT 10SM CLR 24/11 A2992 RMK AO2 SLP120 T02390111 53002

More Conditions Fewer Conditions

Pressure 29.89 in
Visibility 10.0 miles
Clouds Clear
Dew Point 52 °F
Humidity 44%
Rainfall 0.00 in
Snow Depth Not available.
UV 0 out of 12
Pollen 4.80 out of 12
Air Quality Not available.
Flu Activity Not available.
METAR KEAT 280855Z AUTO 30011KT 10SM CLR 24/11 A2992 RMK AO2 SLP120 T02390111 53002

More Conditions Fewer Conditions

10-Day Weather Forecast

Almanac

Astronomy

Aug. 28, 2014 Rise Set
Actual Time 6:14 AM PDT 7:48 PM PDT
Civil Twilight 5:42 AM PDT 8:20 PM PDT
Nautical Twilight 5:03 AM PDT 8:59 PM PDT
Astronomical Twilight 4:20 AM PDT 9:41 PM PDT
Moon 9:26 AM PDT 8:58 PM PDT
Length of Visible Light 14h 38m
Length of Day
13h 33m
Tomorrow will be 3m 16s shorter.
Waxing Crescent, 7% of the Moon is Illuminated
Today
Waxing Crescent
Sep 2
First Quarter
Sep 8
Full
Sep 15
Last Quarter
Sep 24
New

Today's Extremes

State Highs State Lows

Community

WunderPhotos

Upload Photos

1,747,918 photos uploaded!

Nearby

Snow Depth

Station Depth Elevation
Upper Wheeler 0 in 4400 ft
Trough 0 in 5300 ft
Grouse Camp 0 in 5380 ft
Sasse Ridge 0 in 4200 ft
Stevens Pass 0 in 4070 ft

Earthquake Activity

City Distance Mag. Time & Date
No recent earthquake activity has been reported nearby.
Minimum magnitude displayed is 2.5.

Coastal Water Temperatures

Place Temperature
No Stations Reporting

Nearby Weather Stations